Forside
METAR-TAF:

METAR-TAF

Lufthavne :

Flughafen Heringsdorf

Heringsdorf, Tyskland

Breddekreds: 53-53N, længdekreds: 014-09E, højde: 28 m

Aktuelle vejr

Denne rapport blev lavet for 36 minutter siden, kl. 23:20 UTC
Vind 12 kt fra vest
Temperatur 13°C
Fugtighed 77%
Tryk 1023 hPa
Sigt 10 km eller mere

METAR: EDAH 122320Z AUTO 28012KT 9999 // BKN240/// 13/09 Q1023

Tid: 01:56 (23:56 UTC)

Vejrudsigter

Denne rapport blev lavet for 6 timer og 56 minutter siden, kl. 17:00 UTC
Foreløbig gælder fra 12 på 18 UTC til 13 på 03 UTC
Vind 10 kt fra vest
Sigt 10 km eller mere
Brudte skyer i en højde af 2500 ft

TAF: EDAH 121700Z 1218/1303 26010KT 9999 BKN025

Vejrobservationer og prognoser fra mere end 4000 lufthavne (METAR og TAF).

De gule og røde prikker repræsenterer de meteorologiske stationer.

Flyt musen over at se navnet på stationen.

Så klik over at se vejr observationer og prognoser.

At skifte det kort: Klik på de grønne knapper med et sort kors for at zoome ind; på den grønne knap med en bindestreg for at zoome ud; eller på de grønne pile for tilstødende kort.


METAR-TAF: